createdAt,value
2023-05-23T00:01:21.636Z,93412.84
2023-05-23T00:03:49.722Z,93441.50
2023-05-23T00:06:22.231Z,93443.28
2023-05-23T00:08:52.591Z,93434.69
2023-05-23T00:11:24.266Z,93423.78
2023-05-23T00:13:52.224Z,93431.53
2023-05-23T00:16:20.352Z,93424.84
2023-05-23T00:18:50.686Z,93403.09
2023-05-23T00:21:18.827Z,93402.28
2023-05-23T00:23:46.808Z,93430.97
2023-05-23T00:26:14.813Z,93428.00
2023-05-23T00:28:46.861Z,93370.72
2023-05-23T00:40:09.192Z,93380.91
2023-05-23T00:42:37.088Z,93397.81
2023-05-23T00:45:06.352Z,93412.59
2023-05-23T00:47:34.524Z,93414.72
2023-05-23T00:50:02.457Z,93408.56
2023-05-23T00:52:30.840Z,93427.22
2023-05-23T00:54:59.013Z,93416.78
2023-05-23T00:57:27.215Z,93397.72
2023-05-23T00:59:55.949Z,93411.81
2023-05-23T01:02:25.443Z,93408.84
2023-05-23T01:04:55.915Z,93424.41
2023-05-23T01:07:25.330Z,93423.34
2023-05-23T01:09:56.408Z,93419.59
2023-05-23T01:12:32.683Z,93430.81
2023-05-23T01:15:12.954Z,93431.84
2023-05-23T01:18:15.029Z,93428.72
2023-05-23T01:20:59.892Z,93415.03
2023-05-23T01:24:18.058Z,93416.66
2023-05-23T01:27:24.872Z,93418.78
2023-05-23T01:29:58.222Z,93420.63
2023-05-23T01:32:29.218Z,93421.16
2023-05-23T01:35:01.135Z,93422.50
2023-05-23T01:37:29.977Z,93425.94
2023-05-23T01:39:57.879Z,93420.34
2023-05-23T01:42:28.303Z,93421.38
2023-05-23T01:44:59.549Z,93343.75
2023-05-23T01:47:28.025Z,93416.63
2023-05-23T01:49:57.437Z,93410.97
2023-05-23T01:52:26.480Z,93431.06
2023-05-23T01:54:56.452Z,93419.28
2023-05-23T01:57:26.474Z,93416.88
2023-05-23T01:59:54.482Z,93427.03
2023-05-23T02:02:22.941Z,93423.19
2023-05-23T02:04:51.294Z,93420.50
2023-05-23T02:07:23.314Z,93423.44
2023-05-23T02:09:51.417Z,93418.94
2023-05-23T02:12:19.635Z,93421.06
2023-05-23T02:14:48.070Z,93407.41
2023-05-23T02:17:19.581Z,93428.97
2023-05-23T02:19:49.987Z,93422.59
2023-05-23T02:22:17.990Z,93418.38
2023-05-23T02:24:46.033Z,93377.34
2023-05-23T02:27:14.313Z,93419.97
2023-05-23T02:29:44.552Z,93403.75
2023-05-23T02:32:12.563Z,93420.44
2023-05-23T02:34:41.759Z,93420.50
2023-05-23T02:37:09.897Z,93416.75
2023-05-23T02:39:39.463Z,93418.38
2023-05-23T02:42:08.067Z,93421.81
2023-05-23T02:44:36.004Z,93416.97
2023-05-23T02:47:03.995Z,93381.88
2023-05-23T02:49:32.186Z,93382.91
2023-05-23T02:54:06.402Z,93352.22
2023-05-23T02:56:37.747Z,93384.63
2023-05-23T02:59:06.109Z,93425.06
2023-05-23T03:01:34.204Z,93400.25
2023-05-23T03:04:02.296Z,93401.16
2023-05-23T03:06:34.292Z,93400.31
2023-05-23T03:09:02.588Z,93403.53
2023-05-23T03:11:30.721Z,93403.53
2023-05-23T03:14:00.623Z,93403.25
2023-05-23T03:16:28.736Z,93367.63
2023-05-23T03:18:57.751Z,93380.44
2023-05-23T03:21:25.733Z,93398.84
2023-05-23T03:23:53.744Z,93385.84
2023-05-23T03:26:22.240Z,93414.03
2023-05-23T03:28:51.694Z,93423.38
2023-05-23T03:31:21.134Z,93417.53
2023-05-23T03:33:49.182Z,93412.69
2023-05-23T03:36:17.771Z,93386.25
2023-05-23T03:38:45.947Z,93422.53
2023-05-23T03:41:13.899Z,93412.59
2023-05-23T03:43:41.924Z,93423.03
2023-05-23T03:46:10.088Z,93419.03
2023-05-23T03:48:38.405Z,93403.59
2023-05-23T03:51:06.782Z,93406.81
2023-05-23T03:53:36.494Z,93399.84
2023-05-23T03:56:05.845Z,93404.41
2023-05-23T03:58:34.003Z,93421.06
2023-05-23T04:01:07.755Z,93424.59
2023-05-23T04:03:36.046Z,93426.44
2023-05-23T04:06:05.303Z,93418.41
2023-05-23T04:08:34.307Z,93402.09
2023-05-23T04:11:02.840Z,93431.84
2023-05-23T04:13:35.775Z,93427.88
2023-05-23T04:16:06.050Z,93429.97
2023-05-23T04:18:34.667Z,93429.16
2023-05-23T04:21:02.736Z,93432.31
2023-05-23T04:23:32.397Z,93431.31
2023-05-23T04:26:00.760Z,93443.72
2023-05-23T04:28:37.339Z,93396.72
2023-05-23T04:31:05.565Z,93394.59
2023-05-23T04:33:36.520Z,93423.56
2023-05-23T04:36:05.605Z,93434.91
2023-05-23T04:38:34.211Z,93430.59
2023-05-23T04:41:03.412Z,93426.09
2023-05-23T04:43:42.857Z,93437.00
2023-05-23T04:46:28.002Z,93435.38
2023-05-23T04:49:10.392Z,93428.38
2023-05-23T04:51:39.635Z,93430.56
2023-05-23T04:54:24.265Z,93423.13
2023-05-23T04:56:54.159Z,93439.47
2023-05-23T04:59:24.026Z,93421.31
2023-05-23T05:01:52.363Z,93436.09
2023-05-23T05:04:22.358Z,93404.47
2023-05-23T05:06:52.714Z,93435.84
2023-05-23T05:09:22.392Z,93439.78
2023-05-23T05:11:51.819Z,93443.22
2023-05-23T05:14:21.343Z,93435.56
2023-05-23T05:16:50.462Z,93450.31
2023-05-23T05:19:18.902Z,93447.94
2023-05-23T05:21:47.456Z,93433.81
2023-05-23T05:24:15.933Z,93405.53
2023-05-23T05:26:44.043Z,93427.84
2023-05-23T05:29:12.294Z,93414.69
2023-05-23T05:31:41.164Z,93440.78
2023-05-23T05:34:10.208Z,93323.25
2023-05-23T05:36:38.627Z,93442.13
2023-05-23T05:39:07.277Z,93423.97
2023-05-23T05:41:35.661Z,93431.75
2023-05-23T05:44:04.743Z,93433.44
2023-05-23T05:46:32.732Z,93431.88
2023-05-23T05:49:00.790Z,93411.22
2023-05-23T05:51:29.664Z,93413.75
2023-05-23T05:53:58.077Z,93444.72
2023-05-23T05:56:26.625Z,93446.97
2023-05-23T05:58:54.736Z,93452.16
2023-05-23T06:01:23.754Z,93420.31
2023-05-23T06:03:51.946Z,93447.50
2023-05-23T06:06:20.368Z,93443.81
2023-05-23T06:08:49.123Z,93404.00
2023-05-23T06:11:18.321Z,93450.81
2023-05-23T06:13:46.673Z,93454.31
2023-05-23T06:16:15.628Z,93438.25
2023-05-23T06:18:45.436Z,93428.66
2023-05-23T06:21:13.451Z,93439.56
2023-05-23T06:23:41.657Z,93428.25
2023-05-23T06:26:11.156Z,93408.31
2023-05-23T06:28:43.054Z,93431.78
2023-05-23T06:31:11.237Z,93423.78
2023-05-23T06:33:39.554Z,93426.84
2023-05-23T06:36:07.733Z,93408.03
2023-05-23T06:38:35.781Z,93415.84
2023-05-23T06:41:04.704Z,93412.53
2023-05-23T06:43:33.162Z,93417.22
2023-05-23T06:46:23.782Z,93412.31
2023-05-23T06:49:02.630Z,93367.53
2023-05-23T06:51:40.767Z,93413.16
2023-05-23T06:54:08.749Z,93408.56
2023-05-23T06:56:37.927Z,93403.78
2023-05-23T07:04:30.189Z,93401.59
2023-05-23T07:07:03.210Z,93405.31
2023-05-23T07:09:31.302Z,93378.75
2023-05-23T07:12:08.671Z,93390.28
2023-05-23T07:14:40.828Z,93380.84
2023-05-23T07:17:09.151Z,93378.50
2023-05-23T07:19:38.392Z,93383.13
2023-05-23T07:22:07.386Z,93378.81
2023-05-23T07:24:38.639Z,93363.50
2023-05-23T07:27:07.414Z,93371.69
2023-05-23T07:29:37.071Z,93373.97
2023-05-23T07:32:05.939Z,93383.00
2023-05-23T07:34:34.049Z,93378.75
2023-05-23T07:37:03.265Z,93376.69
2023-05-23T07:39:39.169Z,93372.94
2023-05-23T07:42:14.846Z,93369.03
2023-05-23T07:44:44.096Z,93362.84
2023-05-23T07:47:12.109Z,93374.75
2023-05-23T07:49:40.064Z,93367.66
2023-05-23T07:52:08.222Z,93371.94
2023-05-23T07:54:37.300Z,93373.34
2023-05-23T07:57:07.644Z,93367.94
2023-05-23T07:59:38.851Z,93374.59
2023-05-23T08:02:07.436Z,93360.28
2023-05-23T08:04:35.754Z,93363.91
2023-05-23T08:07:06.408Z,93356.44
2023-05-23T08:09:56.640Z,93358.28
2023-05-23T08:12:24.810Z,93358.16
2023-05-23T08:15:01.269Z,93354.34
2023-05-23T08:17:49.976Z,93300.09
2023-05-23T08:20:18.972Z,93357.00
2023-05-23T08:22:47.368Z,93365.66
2023-05-23T08:25:16.434Z,93352.00
2023-05-23T08:27:44.972Z,93349.78
2023-05-23T08:30:45.864Z,93353.56
2023-05-23T08:33:14.166Z,93325.38
2023-05-23T08:35:44.750Z,93356.28
2023-05-23T08:38:14.668Z,93351.69
2023-05-23T08:40:56.702Z,93363.09
2023-05-23T08:43:27.040Z,93339.53
2023-05-23T08:45:55.603Z,93355.78
2023-05-23T08:48:27.399Z,93355.22
2023-05-23T08:50:58.291Z,93353.72
2023-05-23T08:53:27.696Z,93359.91
2023-05-23T08:56:03.873Z,93349.72
2023-05-23T08:58:44.928Z,93332.84
2023-05-23T09:01:14.187Z,93322.00
2023-05-23T09:03:43.411Z,93350.19
2023-05-23T09:06:32.661Z,93334.84
2023-05-23T09:09:01.179Z,93351.50
2023-05-23T09:11:29.703Z,93349.56
2023-05-23T09:13:59.030Z,93346.38
2023-05-23T09:16:35.324Z,93344.13
2023-05-23T09:19:16.069Z,93345.56
2023-05-23T09:21:53.902Z,93334.72
2023-05-23T09:24:38.349Z,93347.66
2023-05-23T09:27:09.222Z,93344.00
2023-05-23T09:29:40.059Z,93346.88
2023-05-23T09:32:12.670Z,93306.56
2023-05-23T09:34:43.290Z,93333.94
2023-05-23T09:37:14.135Z,93342.38
2023-05-23T09:39:47.480Z,93339.84
2023-05-23T09:42:21.837Z,93319.59
2023-05-23T09:44:50.898Z,93321.84
2023-05-23T09:47:19.387Z,93330.72
2023-05-23T09:49:49.379Z,93308.25
2023-05-23T09:52:20.374Z,93318.13
2023-05-23T09:54:49.173Z,93321.50
2023-05-23T09:57:17.828Z,93330.34
2023-05-23T09:59:54.719Z,93305.56
2023-05-23T10:02:51.641Z,93322.47
2023-05-23T10:05:31.198Z,93302.69
2023-05-23T10:08:03.213Z,93315.38
2023-05-23T10:10:49.785Z,93311.38
2023-05-23T10:13:19.140Z,93300.13
2023-05-23T10:15:50.309Z,93312.84
2023-05-23T10:18:26.595Z,93248.81
2023-05-23T10:21:01.993Z,93293.88
2023-05-23T10:23:30.265Z,93308.13
2023-05-23T10:25:58.268Z,93316.56
2023-05-23T10:28:27.778Z,93299.56
2023-05-23T10:30:56.199Z,93311.72
2023-05-23T10:33:36.356Z,93289.06
2023-05-23T10:36:19.838Z,93296.59
2023-05-23T10:39:20.341Z,93281.84
2023-05-23T10:41:56.167Z,93283.66
2023-05-23T10:44:25.269Z,93289.06
2023-05-23T10:46:58.388Z,93277.88
2023-05-23T10:49:52.617Z,93289.66
2023-05-23T10:52:21.663Z,93291.69
2023-05-23T10:54:54.569Z,93262.44
2023-05-23T10:57:28.288Z,93281.06
2023-05-23T10:59:57.417Z,93270.09
2023-05-23T11:02:29.668Z,93272.91
2023-05-23T11:05:16.761Z,93292.66
2023-05-23T11:07:44.870Z,93284.78
2023-05-23T11:10:14.539Z,93282.66
2023-05-23T11:12:44.346Z,93279.66
2023-05-23T11:15:18.549Z,93278.66
2023-05-23T11:17:57.718Z,93280.44
2023-05-23T11:20:28.640Z,93285.09
2023-05-23T11:23:01.472Z,93273.84
2023-05-23T11:25:54.276Z,93278.13
2023-05-23T11:28:22.467Z,93272.03
2023-05-23T11:30:51.310Z,93270.97
2023-05-23T11:33:20.263Z,93253.31
2023-05-23T11:35:49.952Z,93266.97
2023-05-23T11:38:18.753Z,93262.78
2023-05-23T11:40:47.785Z,93263.25
2023-05-23T11:43:18.352Z,93252.25
2023-05-23T11:45:47.307Z,93227.75
2023-05-23T11:48:17.223Z,93270.81
2023-05-23T11:50:53.297Z,93261.13
2023-05-23T11:53:25.937Z,93259.81
2023-05-23T11:55:57.935Z,93230.66
2023-05-23T11:58:39.666Z,93258.88
2023-05-23T12:01:09.636Z,93255.56
2023-05-23T12:03:54.073Z,93242.75
2023-05-23T12:06:25.185Z,93206.31
2023-05-23T12:08:53.378Z,93198.59
2023-05-23T12:11:24.014Z,93218.75
2023-05-23T12:13:53.580Z,93240.06
2023-05-23T12:16:22.145Z,93236.59
2023-05-23T12:18:50.586Z,93192.56
2023-05-23T12:21:19.016Z,93237.31
2023-05-23T12:23:47.956Z,93226.44
2023-05-23T12:26:15.953Z,93225.44
2023-05-23T12:28:45.775Z,93212.88
2023-05-23T12:31:21.899Z,93207.06
2023-05-23T12:33:53.806Z,93223.72
2023-05-23T12:36:24.580Z,93222.88
2023-05-23T12:38:53.041Z,93185.22
2023-05-23T12:41:22.302Z,93201.44
2023-05-23T12:43:53.050Z,93214.72
2023-05-23T12:46:23.332Z,93202.75
2023-05-23T12:48:51.732Z,93208.22
2023-05-23T12:51:20.027Z,93191.16
2023-05-23T12:53:48.662Z,93204.16
2023-05-23T12:56:17.489Z,93197.38
2023-05-23T12:58:45.887Z,93205.47
2023-05-23T13:01:16.885Z,93191.31
2023-05-23T13:03:47.549Z,93192.78
2023-05-23T13:08:59.240Z,93168.44
2023-05-23T13:14:09.878Z,93188.06
2023-05-23T13:16:39.578Z,93076.13
2023-05-23T13:19:08.667Z,93157.06
2023-05-23T13:21:37.015Z,93187.91
2023-05-23T13:24:05.630Z,93169.47
2023-05-23T13:26:34.027Z,93168.31
2023-05-23T13:29:09.463Z,93174.44
2023-05-23T13:31:37.883Z,93186.25
2023-05-23T13:34:06.480Z,93167.50
2023-05-23T13:36:38.312Z,93175.66
2023-05-23T13:39:07.414Z,93185.53
2023-05-23T13:41:35.552Z,93171.44
2023-05-23T13:44:04.520Z,93191.66
2023-05-23T13:46:32.901Z,93192.41
2023-05-23T13:49:01.563Z,93190.97
2023-05-23T13:51:29.875Z,93191.91
2023-05-23T13:53:58.250Z,93198.44
2023-05-23T13:56:26.343Z,93199.63
2023-05-23T13:58:54.387Z,93177.13
2023-05-23T14:01:22.755Z,93201.47
2023-05-23T14:03:51.403Z,93193.56
2023-05-23T14:06:19.876Z,93189.59
2023-05-23T14:08:48.055Z,93187.34
2023-05-23T14:11:16.251Z,93170.91
2023-05-23T14:13:44.638Z,93183.47
2023-05-23T14:16:13.246Z,93181.44
2023-05-23T14:18:41.536Z,93186.47
2023-05-23T14:21:09.979Z,93176.69
2023-05-23T14:23:39.110Z,93180.22
2023-05-23T14:26:07.724Z,93177.19
2023-05-23T14:28:36.156Z,93184.31
2023-05-23T14:31:04.615Z,93149.59
2023-05-23T14:33:33.560Z,93180.53
2023-05-23T14:36:02.031Z,93175.50
2023-05-23T14:38:30.154Z,93181.94
2023-05-23T14:40:59.669Z,93183.09
2023-05-23T14:43:28.866Z,93174.72
2023-05-23T14:45:57.107Z,93180.16
2023-05-23T14:48:28.239Z,93187.50
2023-05-23T14:50:56.418Z,93181.00
2023-05-23T14:53:24.425Z,93180.66
2023-05-23T14:55:52.508Z,93172.50
2023-05-23T14:58:22.768Z,93180.59
2023-05-23T15:00:51.311Z,93179.72
2023-05-23T15:03:19.660Z,93174.88
2023-05-23T15:05:48.782Z,93173.22
2023-05-23T15:08:18.323Z,93169.44
2023-05-23T15:10:46.503Z,93178.97
2023-05-23T15:13:14.630Z,93175.63
2023-05-23T15:15:43.300Z,93169.72
2023-05-23T15:18:16.794Z,93169.75
2023-05-23T15:20:50.287Z,93166.06
2023-05-23T15:23:18.271Z,93162.91
2023-05-23T15:25:49.915Z,93161.25
2023-05-23T15:28:19.747Z,93162.59
2023-05-23T15:30:48.390Z,93160.81
2023-05-23T15:36:00.449Z,93162.31
2023-05-23T15:38:28.366Z,93163.59
2023-05-23T15:41:03.516Z,93165.09
2023-05-23T15:43:33.119Z,93161.13
2023-05-23T15:46:01.768Z,93163.94
2023-05-23T15:48:30.171Z,93165.72
2023-05-23T15:50:58.144Z,93164.31
2023-05-23T15:53:26.017Z,93160.31
2023-05-23T15:55:54.350Z,93161.50
2023-05-23T15:58:22.831Z,93158.00
2023-05-23T16:00:51.338Z,93158.63
2023-05-23T16:03:20.089Z,93165.50
2023-05-23T16:05:48.902Z,93167.88
2023-05-23T16:08:17.509Z,93164.25
2023-05-23T16:10:46.283Z,93163.56
2023-05-23T16:13:16.784Z,93159.44
2023-05-23T16:15:46.562Z,93171.47
2023-05-23T16:18:15.770Z,93164.97
2023-05-23T16:20:44.333Z,93167.16
2023-05-23T16:23:13.013Z,93171.19
2023-05-23T16:25:41.633Z,93175.63
2023-05-23T16:28:10.266Z,93179.16
2023-05-23T16:30:38.737Z,93176.63
2023-05-23T16:33:07.314Z,93178.09
2023-05-23T16:35:36.071Z,93181.41
2023-05-23T16:38:04.436Z,93187.63
2023-05-23T16:40:32.912Z,93192.22
2023-05-23T16:43:02.789Z,93196.53
2023-05-23T16:45:31.407Z,93195.88
2023-05-23T16:48:01.522Z,93203.06
2023-05-23T16:50:30.054Z,93188.56
2023-05-23T16:52:58.396Z,93201.13
2023-05-23T16:55:27.449Z,93207.97
2023-05-23T16:57:56.036Z,93208.94
2023-05-23T17:00:24.516Z,93196.19
2023-05-23T17:02:52.872Z,93203.19
2023-05-23T17:05:21.331Z,93207.97
2023-05-23T17:07:49.411Z,93204.13
2023-05-23T17:10:20.034Z,93206.50
2023-05-23T17:12:48.436Z,93208.56
2023-05-23T17:15:16.755Z,93206.28
2023-05-23T17:17:44.731Z,93210.88
2023-05-23T17:20:13.169Z,93212.13
2023-05-23T17:22:42.031Z,93220.19
2023-05-23T17:25:10.233Z,93224.75
2023-05-23T17:27:40.876Z,93226.81
2023-05-23T17:30:09.470Z,93223.41
2023-05-23T17:32:40.714Z,93231.16
2023-05-23T17:35:11.509Z,93230.50
2023-05-23T17:37:43.894Z,93227.88
2023-05-23T17:40:12.777Z,93227.31
2023-05-23T17:42:41.743Z,93234.03
2023-05-23T17:45:10.219Z,93227.00
2023-05-23T17:47:41.304Z,93231.22
2023-05-23T17:50:10.026Z,93230.41
2023-05-23T17:52:38.026Z,93226.84
2023-05-23T17:55:06.731Z,93235.38
2023-05-23T17:57:34.762Z,93237.06
2023-05-23T18:00:02.956Z,93243.25
2023-05-23T18:02:40.726Z,93160.78
2023-05-23T18:05:09.713Z,93247.06
2023-05-23T18:07:39.943Z,93253.47
2023-05-23T18:10:08.813Z,93255.84
2023-05-23T18:12:37.166Z,93257.94
2023-05-23T18:15:05.632Z,93262.81
2023-05-23T18:17:34.247Z,93276.06
2023-05-23T18:20:02.515Z,93267.09
2023-05-23T18:22:33.637Z,93267.47
2023-05-23T18:25:01.615Z,93269.44
2023-05-23T18:27:30.501Z,93277.91
2023-05-23T18:29:58.443Z,93287.63
2023-05-23T18:32:26.502Z,93294.16
2023-05-23T18:34:54.609Z,93302.59
2023-05-23T18:37:23.071Z,93295.34
2023-05-23T18:39:51.084Z,93309.88
2023-05-23T18:42:19.162Z,93315.94
2023-05-23T18:44:47.757Z,93314.91
2023-05-23T18:47:15.704Z,93319.25
2023-05-23T18:49:43.769Z,93326.44
2023-05-23T18:52:12.157Z,93321.97
2023-05-23T18:54:40.208Z,93326.06
2023-05-23T18:57:08.681Z,93334.75
2023-05-23T18:59:37.014Z,93322.09
2023-05-23T19:02:07.394Z,93340.63
2023-05-23T19:07:27.446Z,93338.56
2023-05-23T19:09:57.524Z,93354.66
2023-05-23T19:12:37.600Z,93352.84
2023-05-23T19:15:11.085Z,93332.16
2023-05-23T19:17:39.865Z,93367.13
2023-05-23T19:20:09.206Z,93373.38
2023-05-23T19:22:50.257Z,93383.59
2023-05-23T19:25:21.983Z,93384.16
2023-05-23T19:27:50.917Z,93393.84
2023-05-23T19:30:19.673Z,93389.91
2023-05-23T19:32:48.067Z,93393.66
2023-05-23T19:35:17.190Z,93399.22
2023-05-23T19:37:45.963Z,93403.28
2023-05-23T19:40:14.606Z,93400.94
2023-05-23T19:42:43.251Z,93397.78
2023-05-23T19:45:12.515Z,93408.31
2023-05-23T19:47:41.466Z,93412.88
2023-05-23T19:50:14.443Z,93409.16
2023-05-23T19:52:43.133Z,93416.94
2023-05-23T19:55:11.729Z,93414.25
2023-05-23T19:57:40.558Z,93414.06
2023-05-23T20:00:10.849Z,93416.50
2023-05-23T20:02:42.446Z,93415.94
2023-05-23T20:05:11.766Z,93418.66
2023-05-23T20:07:40.490Z,93420.78
2023-05-23T20:10:09.699Z,93426.19
2023-05-23T20:12:40.602Z,93426.19
2023-05-23T20:15:09.583Z,93424.34
2023-05-23T20:17:39.177Z,93422.84
2023-05-23T20:20:08.329Z,93422.53
2023-05-23T20:22:36.886Z,93418.56
2023-05-23T20:25:05.989Z,93423.69
2023-05-23T20:27:35.005Z,93425.56
2023-05-23T20:30:03.189Z,93392.44
2023-05-23T20:32:31.942Z,93433.38
2023-05-23T20:35:00.110Z,93402.88
2023-05-23T20:37:28.725Z,93418.09
2023-05-23T20:39:57.081Z,93421.31
2023-05-23T20:42:27.030Z,93434.75
2023-05-23T20:44:57.240Z,93430.75
2023-05-23T20:47:26.222Z,93432.88
2023-05-23T20:49:56.039Z,93425.66
2023-05-23T20:52:24.770Z,93433.44
2023-05-23T20:54:54.835Z,93429.69
2023-05-23T20:57:23.491Z,93426.75
2023-05-23T20:59:51.707Z,93433.47
2023-05-23T21:02:20.076Z,93432.38
2023-05-23T21:04:48.744Z,93429.47
2023-05-23T21:07:16.838Z,93440.94
2023-05-23T21:09:44.823Z,93446.56
2023-05-23T21:12:13.264Z,93437.72
2023-05-23T21:14:41.462Z,93443.59
2023-05-23T21:17:09.778Z,93440.41
2023-05-23T21:19:38.173Z,93443.59
2023-05-23T21:22:06.556Z,93446.00
2023-05-23T21:24:34.746Z,93446.53
2023-05-23T21:27:03.183Z,93444.69
2023-05-23T21:29:31.734Z,93444.41
2023-05-23T21:31:59.739Z,93450.00
2023-05-23T21:34:27.716Z,93446.50
2023-05-23T21:36:55.923Z,93459.63
2023-05-23T21:39:23.890Z,93459.34
2023-05-23T21:41:51.918Z,93455.84
2023-05-23T21:44:20.474Z,93461.44
2023-05-23T21:46:48.660Z,93457.72
2023-05-23T21:49:16.986Z,93463.59
2023-05-23T21:51:45.288Z,93460.38
2023-05-23T21:54:13.300Z,93457.66
2023-05-23T21:56:41.904Z,93466.19
2023-05-23T21:59:10.067Z,93467.81
2023-05-23T22:01:38.237Z,93459.78
2023-05-23T22:04:06.696Z,93459.50
2023-05-23T22:06:34.892Z,93451.72
2023-05-23T22:09:03.143Z,93460.59
2023-05-23T22:11:34.339Z,93465.09
2023-05-23T22:14:02.722Z,93460.00
2023-05-23T22:16:34.620Z,93463.22
2023-05-23T22:19:05.430Z,93467.72
2023-05-23T22:21:33.494Z,93461.53
2023-05-23T22:24:01.723Z,93476.75
2023-05-23T22:26:29.839Z,93467.38
2023-05-23T22:28:58.079Z,93471.91
2023-05-23T22:31:27.881Z,93460.41
2023-05-23T22:33:56.153Z,93462.75
2023-05-23T22:36:24.127Z,93461.97
2023-05-23T22:38:52.186Z,93461.66
2023-05-23T22:41:20.115Z,93461.06
2023-05-23T22:43:48.438Z,93444.97
2023-05-23T22:46:16.551Z,93445.69
2023-05-23T22:48:45.325Z,93465.84
2023-05-23T22:51:14.806Z,93463.97
2023-05-23T22:53:43.458Z,93460.78
2023-05-23T22:56:11.561Z,93447.94
2023-05-23T22:58:39.665Z,93449.56
2023-05-23T23:01:07.704Z,93455.38
2023-05-23T23:03:36.013Z,93459.41
2023-05-23T23:06:09.564Z,93458.06
2023-05-23T23:08:37.939Z,93451.63
2023-05-23T23:11:06.173Z,93441.19
2023-05-23T23:13:34.264Z,93450.28
2023-05-23T23:16:02.157Z,93446.25
2023-05-23T23:18:30.098Z,93444.63
2023-05-23T23:20:58.151Z,93443.16
2023-05-23T23:23:26.234Z,93422.00
2023-05-23T23:25:54.261Z,93450.03
2023-05-23T23:28:22.297Z,93442.34
2023-05-23T23:30:50.231Z,93447.13
2023-05-23T23:33:18.235Z,93447.13
2023-05-23T23:35:48.763Z,93433.16
2023-05-23T23:38:17.084Z,93437.19
2023-05-23T23:40:45.909Z,93434.06
2023-05-23T23:43:14.146Z,93438.13
2023-05-23T23:45:42.157Z,93437.00
2023-05-23T23:48:10.245Z,93436.28
2023-05-23T23:50:38.290Z,93429.72
2023-05-23T23:53:06.701Z,93418.75
2023-05-23T23:55:34.867Z,93432.63
2023-05-23T23:58:02.787Z,93431.47
